sensor_id;sensor_type;location;lat;lon;timestamp;pressure;altitude;pressure_sealevel;temperature;humidity
48035;BME280;33812;46.480;6.834;2024-01-16T00:00:23;92948.28;;;19.73;38.67
48035;BME280;33812;46.480;6.834;2024-01-16T00:04:25;92949.81;;;19.74;38.79
48035;BME280;33812;46.480;6.834;2024-01-16T00:08:30;92943.97;;;19.72;38.64
48035;BME280;33812;46.480;6.834;2024-01-16T00:12:32;92939.69;;;19.71;38.50
48035;BME280;33812;46.480;6.834;2024-01-16T00:16:41;92939.22;;;19.73;38.43
48035;BME280;33812;46.480;6.834;2024-01-16T00:20:43;92937.25;;;19.73;38.38
48035;BME280;33812;46.480;6.834;2024-01-16T00:24:45;92941.22;;;19.72;38.19
48035;BME280;33812;46.480;6.834;2024-01-16T00:28:46;92948.28;;;19.73;38.19
48035;BME280;33812;46.480;6.834;2024-01-16T00:32:50;92945.53;;;19.73;38.12
48035;BME280;33812;46.480;6.834;2024-01-16T00:36:52;92938.44;;;19.72;38.30
48035;BME280;33812;46.480;6.834;2024-01-16T00:40:54;92936.03;;;19.74;37.99
48035;BME280;33812;46.480;6.834;2024-01-16T00:44:56;92938.78;;;19.74;38.05
48035;BME280;33812;46.480;6.834;2024-01-16T00:48:59;92931.75;;;19.73;38.19
48035;BME280;33812;46.480;6.834;2024-01-16T00:53:01;92937.25;;;19.73;37.98
48035;BME280;33812;46.480;6.834;2024-01-16T00:57:03;92936.03;;;19.74;38.25
48035;BME280;33812;46.480;6.834;2024-01-16T01:01:05;92941.09;;;19.76;37.76
48035;BME280;33812;46.480;6.834;2024-01-16T01:05:08;92946.28;;;19.74;37.93
48035;BME280;33812;46.480;6.834;2024-01-16T01:09:10;92940.00;;;19.73;37.81
48035;BME280;33812;46.480;6.834;2024-01-16T01:13:12;92934.50;;;19.73;38.00
48035;BME280;33812;46.480;6.834;2024-01-16T01:17:14;92935.41;;;19.70;38.03
48035;BME280;33812;46.480;6.834;2024-01-16T01:21:17;92952.25;;;19.72;37.96
48035;BME280;33812;46.480;6.834;2024-01-16T01:25:19;92950.72;;;19.71;37.79
48035;BME280;33812;46.480;6.834;2024-01-16T01:29:21;92947.63;;;19.69;37.59
48035;BME280;33812;46.480;6.834;2024-01-16T01:33:23;92955.00;;;19.72;37.79
48035;BME280;33812;46.480;6.834;2024-01-16T01:37:26;92944.41;;;19.71;37.65
48035;BME280;33812;46.480;6.834;2024-01-16T01:41:27;92944.75;;;19.73;37.55
48035;BME280;33812;46.480;6.834;2024-01-16T01:45:29;92944.41;;;19.71;37.37
48035;BME280;33812;46.480;6.834;2024-01-16T01:49:31;92949.47;;;19.72;37.26
48035;BME280;33812;46.480;6.834;2024-01-16T01:53:36;92955.78;;;19.73;37.66
48035;BME280;33812;46.480;6.834;2024-01-16T01:57:38;92957.44;;;19.70;37.62
48035;BME280;33812;46.480;6.834;2024-01-16T02:01:40;92956.56;;;19.73;37.26
48035;BME280;33812;46.480;6.834;2024-01-16T02:05:43;92954.25;;;19.72;37.29
48035;BME280;33812;46.480;6.834;2024-01-16T02:09:48;92945.97;;;19.72;37.29
48035;BME280;33812;46.480;6.834;2024-01-16T02:13:49;92946.72;;;19.72;37.30
48035;BME280;33812;46.480;6.834;2024-01-16T02:17:51;92944.75;;;19.73;37.15
48035;BME280;33812;46.480;6.834;2024-01-16T02:21:59;92946.44;;;19.70;37.31
48035;BME280;33812;46.480;6.834;2024-01-16T02:26:04;92943.66;;;19.70;37.10
48035;BME280;33812;46.480;6.834;2024-01-16T02:30:07;92944.75;;;19.73;37.23
48035;BME280;33812;46.480;6.834;2024-01-16T02:34:08;92934.16;;;19.71;37.22
48035;BME280;33812;46.480;6.834;2024-01-16T02:38:10;92936.47;;;19.73;36.94
48035;BME280;33812;46.480;6.834;2024-01-16T02:42:13;92937.69;;;19.72;36.93
48035;BME280;33812;46.480;6.834;2024-01-16T02:46:15;92940.47;;;19.72;37.02
48035;BME280;33812;46.480;6.834;2024-01-16T02:50:17;92943.97;;;19.72;36.96
48035;BME280;33812;46.480;6.834;2024-01-16T02:54:20;92935.41;;;19.70;36.96
48035;BME280;33812;46.480;6.834;2024-01-16T02:58:23;92938.16;;;19.70;36.68
48035;BME280;33812;46.480;6.834;2024-01-16T03:02:26;92944.09;;;19.68;37.04
48035;BME280;33812;46.480;6.834;2024-01-16T03:06:27;92940.13;;;19.69;36.90
48035;BME280;33812;46.480;6.834;2024-01-16T03:10:29;92927.25;;;19.66;36.65
48035;BME280;33812;46.480;6.834;2024-01-16T03:14:32;92934.28;;;19.67;36.99
48035;BME280;33812;46.480;6.834;2024-01-16T03:18:36;92939.03;;;19.67;36.69
48035;BME280;33812;46.480;6.834;2024-01-16T03:22:38;92934.75;;;19.66;37.04
48035;BME280;33812;46.480;6.834;2024-01-16T03:26:40;92928.78;;;19.67;36.52
48035;BME280;33812;46.480;6.834;2024-01-16T03:30:44;92928.31;;;19.69;36.48
48035;BME280;33812;46.480;6.834;2024-01-16T03:34:46;92932.31;;;19.68;36.83
48035;BME280;33812;46.480;6.834;2024-01-16T03:38:48;92934.63;;;19.69;36.58
48035;BME280;33812;46.480;6.834;2024-01-16T03:42:50;92934.63;;;19.69;36.28
48035;BME280;33812;46.480;6.834;2024-01-16T03:46:53;92940.91;;;19.70;36.62
48035;BME280;33812;46.480;6.834;2024-01-16T03:50:55;92929.56;;;19.68;36.79
48035;BME280;33812;46.480;6.834;2024-01-16T03:54:57;92935.06;;;19.68;36.64
48035;BME280;33812;46.480;6.834;2024-01-16T03:58:59;92938.16;;;19.70;36.62
48035;BME280;33812;46.480;6.834;2024-01-16T04:03:02;92924.03;;;19.68;36.26
48035;BME280;33812;46.480;6.834;2024-01-16T04:07:04;92922.03;;;19.68;36.30
48035;BME280;33812;46.480;6.834;2024-01-16T04:11:11;92919.72;;;19.67;36.37
48035;BME280;33812;46.480;6.834;2024-01-16T04:15:13;92921.28;;;19.68;36.24
48035;BME280;33812;46.480;6.834;2024-01-16T04:19:16;92910.25;;;19.68;36.39
48035;BME280;33812;46.480;6.834;2024-01-16T04:23:18;92918.53;;;19.68;36.41
48035;BME280;33812;46.480;6.834;2024-01-16T04:27:19;92907.50;;;19.68;36.44
48035;BME280;33812;46.480;6.834;2024-01-16T04:31:21;92910.25;;;19.68;36.45
48035;BME280;33812;46.480;6.834;2024-01-16T04:35:24;92892.16;;;19.67;36.44
48035;BME280;33812;46.480;6.834;2024-01-16T04:39:26;92896.47;;;19.68;36.27
48035;BME280;33812;46.480;6.834;2024-01-16T04:43:28;92900.44;;;19.67;36.19
48035;BME280;33812;46.480;6.834;2024-01-16T04:47:30;92900.44;;;19.67;36.07
48035;BME280;33812;46.480;6.834;2024-01-16T04:51:33;92894.94;;;19.67;36.08
48035;BME280;33812;46.480;6.834;2024-01-16T04:55:35;92894.59;;;19.65;35.93
48035;BME280;33812;46.480;6.834;2024-01-16T04:59:37;92898.59;;;19.64;35.87
48035;BME280;33812;46.480;6.834;2024-01-16T05:03:38;92903.31;;;19.63;36.15
48035;BME280;33812;46.480;6.834;2024-01-16T05:07:42;92888.47;;;19.61;36.16
48035;BME280;33812;46.480;6.834;2024-01-16T05:11:43;92892.00;;;19.61;35.82
48035;BME280;33812;46.480;6.834;2024-01-16T05:15:45;92889.66;;;19.60;36.20
48035;BME280;33812;46.480;6.834;2024-01-16T05:19:47;92899.16;;;19.59;35.88
48035;BME280;33812;46.480;6.834;2024-01-16T05:23:50;92885.38;;;19.59;36.06
48035;BME280;33812;46.480;6.834;2024-01-16T05:27:52;92889.38;;;19.57;36.13
48035;BME280;33812;46.480;6.834;2024-01-16T05:31:53;92882.63;;;19.59;35.92
48035;BME280;33812;46.480;6.834;2024-01-16T05:35:57;92870.81;;;19.58;35.97
48035;BME280;33812;46.480;6.834;2024-01-16T05:40:00;92868.06;;;19.58;35.68
48035;BME280;33812;46.480;6.834;2024-01-16T05:44:03;92861.47;;;19.55;36.18
48035;BME280;33812;46.480;6.834;2024-01-16T05:48:05;92855.84;;;19.59;36.29
48035;BME280;33812;46.480;6.834;2024-01-16T05:52:09;92853.09;;;19.59;35.78
48035;BME280;33812;46.480;6.834;2024-01-16T05:56:12;92847.13;;;19.61;36.10
48035;BME280;33812;46.480;6.834;2024-01-16T06:00:15;92837.63;;;19.62;36.01
48035;BME280;33812;46.480;6.834;2024-01-16T06:04:18;92839.63;;;19.61;35.59
48035;BME280;33812;46.480;6.834;2024-01-16T06:08:20;92846.66;;;19.62;35.62
48035;BME280;33812;46.480;6.834;2024-01-16T06:12:23;92838.72;;;19.64;35.99
48035;BME280;33812;46.480;6.834;2024-01-16T06:16:24;92845.19;;;19.71;36.73
48035;BME280;33812;46.480;6.834;2024-01-16T06:20:26;92847.03;;;19.74;36.59
48035;BME280;33812;46.480;6.834;2024-01-16T06:24:29;92854.34;;;19.67;36.63
48035;BME280;33812;46.480;6.834;2024-01-16T06:28:38;92836.28;;;19.66;36.80
48035;BME280;33812;46.480;6.834;2024-01-16T06:32:42;92841.03;;;19.66;36.35
48035;BME280;33812;46.480;6.834;2024-01-16T06:36:44;92839.25;;;19.50;29.29
48035;BME280;33812;46.480;6.834;2024-01-16T06:40:45;92844.25;;;19.42;32.98
48035;BME280;33812;46.480;6.834;2024-01-16T06:44:49;92836.63;;;19.46;34.47
48035;BME280;33812;46.480;6.834;2024-01-16T06:48:50;92842.44;;;19.48;34.77
48035;BME280;33812;46.480;6.834;2024-01-16T06:52:52;92854.47;;;19.64;34.50
48035;BME280;33812;46.480;6.834;2024-01-16T06:56:54;92844.56;;;19.66;35.04
48035;BME280;33812;46.480;6.834;2024-01-16T07:00:57;92850.13;;;19.53;35.37
48035;BME280;33812;46.480;6.834;2024-01-16T07:05:00;92856.56;;;19.50;35.36
48035;BME280;33812;46.480;6.834;2024-01-16T07:09:02;92862.97;;;19.47;35.50
48035;BME280;33812;46.480;6.834;2024-01-16T07:13:05;92865.16;;;19.52;35.67
48035;BME280;33812;46.480;6.834;2024-01-16T07:17:09;92869.56;;;19.50;35.76
48035;BME280;33812;46.480;6.834;2024-01-16T07:21:17;92878.28;;;19.48;35.71
48035;BME280;33812;46.480;6.834;2024-01-16T07:25:19;92888.34;;;19.42;35.60
48035;BME280;33812;46.480;6.834;2024-01-16T07:29:21;92876.75;;;19.47;35.46
48035;BME280;33812;46.480;6.834;2024-01-16T07:33:24;92876.09;;;19.43;35.44
48035;BME280;33812;46.480;6.834;2024-01-16T07:37:25;92882.72;;;19.45;35.45
48035;BME280;33812;46.480;6.834;2024-01-16T07:41:27;92886.88;;;19.50;35.51
48035;BME280;33812;46.480;6.834;2024-01-16T07:45:29;92886.53;;;19.48;35.77
48035;BME280;33812;46.480;6.834;2024-01-16T07:49:32;92880.69;;;19.46;35.68
48035;BME280;33812;46.480;6.834;2024-01-16T07:53:34;92884.25;;;19.47;35.52
48035;BME280;33812;46.480;6.834;2024-01-16T07:57:35;92888.97;;;19.46;35.85
48035;BME280;33812;46.480;6.834;2024-01-16T08:01:37;92887.78;;;19.47;35.67
48035;BME280;33812;46.480;6.834;2024-01-16T08:05:40;92884.09;;;19.50;35.28
48035;BME280;33812;46.480;6.834;2024-01-16T08:09:42;92879.38;;;19.51;35.26
48035;BME280;33812;46.480;6.834;2024-01-16T08:13:44;92906.78;;;19.54;35.69
48035;BME280;33812;46.480;6.834;2024-01-16T08:17:45;92898.84;;;19.56;35.20
48035;BME280;33812;46.480;6.834;2024-01-16T08:21:48;92894.88;;;19.57;35.36
48035;BME280;33812;46.480;6.834;2024-01-16T08:25:50;92896.72;;;19.61;35.13
48035;BME280;33812;46.480;6.834;2024-01-16T08:29:52;92892.63;;;19.65;34.94
48035;BME280;33812;46.480;6.834;2024-01-16T08:33:54;92903.53;;;19.69;35.02
48035;BME280;33812;46.480;6.834;2024-01-16T08:37:59;92909.22;;;19.75;34.73
48035;BME280;33812;46.480;6.834;2024-01-16T08:42:01;92904.50;;;19.75;34.82
48035;BME280;33812;46.480;6.834;2024-01-16T08:46:03;92897.75;;;19.76;34.77
48035;BME280;33812;46.480;6.834;2024-01-16T08:50:06;92906.16;;;19.73;34.78
48035;BME280;33812;46.480;6.834;2024-01-16T08:54:10;92910.94;;;19.81;34.63
48035;BME280;33812;46.480;6.834;2024-01-16T08:58:12;92895.34;;;19.88;34.64
48035;BME280;33812;46.480;6.834;2024-01-16T09:02:14;92890.47;;;19.92;34.23
48035;BME280;33812;46.480;6.834;2024-01-16T09:06:16;92886.69;;;19.99;34.24
48035;BME280;33812;46.480;6.834;2024-01-16T09:10:19;92889.75;;;20.01;33.70
48035;BME280;33812;46.480;6.834;2024-01-16T09:14:21;92888.28;;;20.09;34.16
48035;BME280;33812;46.480;6.834;2024-01-16T09:18:23;92889.13;;;20.19;33.63
48035;BME280;33812;46.480;6.834;2024-01-16T09:22:24;92895.84;;;20.18;33.60
48035;BME280;33812;46.480;6.834;2024-01-16T09:26:27;92887.75;;;20.24;33.88
48035;BME280;33812;46.480;6.834;2024-01-16T09:30:32;92900.31;;;20.25;33.88
48035;BME280;33812;46.480;6.834;2024-01-16T09:34:33;92893.00;;;20.31;33.71
48035;BME280;33812;46.480;6.834;2024-01-16T09:38:35;92889.66;;;20.36;33.69
48035;BME280;33812;46.480;6.834;2024-01-16T09:42:38;92895.63;;;20.44;33.74
48035;BME280;33812;46.480;6.834;2024-01-16T09:46:43;92898.72;;;20.46;33.76
48035;BME280;33812;46.480;6.834;2024-01-16T09:50:46;92899.34;;;20.50;33.70
48035;BME280;33812;46.480;6.834;2024-01-16T09:54:48;92915.47;;;20.52;33.51
48035;BME280;33812;46.480;6.834;2024-01-16T09:58:56;92913.75;;;20.54;33.76
48035;BME280;33812;46.480;6.834;2024-01-16T10:02:59;92907.03;;;20.56;33.70
48035;BME280;33812;46.480;6.834;2024-01-16T10:07:02;92898.16;;;20.61;33.85
48035;BME280;33812;46.480;6.834;2024-01-16T10:11:05;92903.69;;;20.61;33.90
48035;BME280;33812;46.480;6.834;2024-01-16T10:15:09;92891.84;;;20.60;33.78
48035;BME280;33812;46.480;6.834;2024-01-16T10:19:11;92881.59;;;20.61;34.00
48035;BME280;33812;46.480;6.834;2024-01-16T10:23:22;92874.84;;;20.62;33.83
48035;BME280;33812;46.480;6.834;2024-01-16T10:27:24;92881.44;;;20.64;33.62
48035;BME280;33812;46.480;6.834;2024-01-16T10:31:32;92890.03;;;20.66;33.88
48035;BME280;33812;46.480;6.834;2024-01-16T10:35:34;92878.53;;;20.68;33.96
48035;BME280;33812;46.480;6.834;2024-01-16T10:39:35;92873.63;;;20.72;33.97
48035;BME280;33812;46.480;6.834;2024-01-16T10:43:38;92890.50;;;20.74;33.89
48035;BME280;33812;46.480;6.834;2024-01-16T10:47:42;92881.00;;;20.75;33.73
48035;BME280;33812;46.480;6.834;2024-01-16T10:51:44;92883.28;;;20.77;33.92
48035;BME280;33812;46.480;6.834;2024-01-16T10:55:50;92870.25;;;20.77;33.74
48035;BME280;33812;46.480;6.834;2024-01-16T11:00:01;92867.81;;;20.80;33.94
48035;BME280;33812;46.480;6.834;2024-01-16T11:04:06;92859.06;;;20.81;33.91
48035;BME280;33812;46.480;6.834;2024-01-16T11:08:08;92851.09;;;20.83;33.94
48035;BME280;33812;46.480;6.834;2024-01-16T11:12:14;92851.88;;;20.84;34.07
48035;BME280;33812;46.480;6.834;2024-01-16T11:16:18;92848.94;;;20.87;34.03
48035;BME280;33812;46.480;6.834;2024-01-16T11:20:23;92848.03;;;20.81;33.85
48035;BME280;33812;46.480;6.834;2024-01-16T11:24:25;92852.63;;;20.84;33.76
48035;BME280;33812;46.480;6.834;2024-01-16T11:28:28;92857.09;;;20.91;33.89
48035;BME280;33812;46.480;6.834;2024-01-16T11:32:33;92858.19;;;20.94;33.86
48035;BME280;33812;46.480;6.834;2024-01-16T11:36:52;92854.97;;;20.95;33.94
48035;BME280;33812;46.480;6.834;2024-01-16T11:40:55;92858.06;;;20.97;34.06
48035;BME280;33812;46.480;6.834;2024-01-16T11:44:57;92852.38;;;21.01;34.08
48035;BME280;33812;46.480;6.834;2024-01-16T11:49:02;92854.69;;;21.02;34.13
48035;BME280;33812;46.480;6.834;2024-01-16T11:53:05;92843.63;;;21.02;34.14
48035;BME280;33812;46.480;6.834;2024-01-16T11:57:19;92833.81;;;21.11;33.96
48035;BME280;33812;46.480;6.834;2024-01-16T12:01:26;92830.56;;;21.12;33.86
48035;BME280;33812;46.480;6.834;2024-01-16T12:05:28;92806.78;;;21.15;34.08
48035;BME280;33812;46.480;6.834;2024-01-16T12:09:31;92797.88;;;21.20;33.97
48035;BME280;33812;46.480;6.834;2024-01-16T12:13:33;92785.91;;;21.23;34.41
48035;BME280;33812;46.480;6.834;2024-01-16T12:17:35;92777.16;;;21.25;34.54
48035;BME280;33812;46.480;6.834;2024-01-16T12:21:39;92768.41;;;21.26;34.53
48035;BME280;33812;46.480;6.834;2024-01-16T12:25:42;92754.13;;;21.28;34.60
48035;BME280;33812;46.480;6.834;2024-01-16T12:29:44;92751.34;;;21.28;34.71
48035;BME280;33812;46.480;6.834;2024-01-16T12:33:47;92745.34;;;21.30;34.75
48035;BME280;33812;46.480;6.834;2024-01-16T12:37:59;92747.84;;;21.28;34.70
48035;BME280;33812;46.480;6.834;2024-01-16T12:42:03;92725.25;;;21.29;34.74
48035;BME280;33812;46.480;6.834;2024-01-16T12:46:05;92720.47;;;21.30;34.80
48035;BME280;33812;46.480;6.834;2024-01-16T12:50:08;92722.03;;;21.31;34.70
48035;BME280;33812;46.480;6.834;2024-01-16T12:54:11;92714.63;;;21.37;34.90
48035;BME280;33812;46.480;6.834;2024-01-16T12:58:18;92698.81;;;21.37;35.09
48035;BME280;33812;46.480;6.834;2024-01-16T13:02:21;92694.19;;;21.44;34.93
48035;BME280;33812;46.480;6.834;2024-01-16T13:06:23;92693.44;;;21.43;35.07
48035;BME280;33812;46.480;6.834;2024-01-16T13:10:25;92689.44;;;21.44;35.08
48035;BME280;33812;46.480;6.834;2024-01-16T13:14:28;92682.03;;;21.50;34.97
48035;BME280;33812;46.480;6.834;2024-01-16T13:18:31;92672.50;;;21.52;35.07
48035;BME280;33812;46.480;6.834;2024-01-16T13:22:32;92661.47;;;21.52;35.20
48035;BME280;33812;46.480;6.834;2024-01-16T13:26:35;92665.44;;;21.50;35.25
48035;BME280;33812;46.480;6.834;2024-01-16T13:30:39;92661.00;;;21.53;35.25
48035;BME280;33812;46.480;6.834;2024-01-16T13:34:41;92650.53;;;21.57;35.12
48035;BME280;33812;46.480;6.834;2024-01-16T13:38:50;92647.31;;;21.59;35.08
48035;BME280;33812;46.480;6.834;2024-01-16T13:42:52;92656.34;;;21.59;35.33
48035;BME280;33812;46.480;6.834;2024-01-16T13:46:55;92653.13;;;21.61;35.13
48035;BME280;33812;46.480;6.834;2024-01-16T13:51:01;92646.34;;;21.62;35.10
48035;BME280;33812;46.480;6.834;2024-01-16T13:55:05;92650.38;;;21.61;35.17
48035;BME280;33812;46.480;6.834;2024-01-16T13:59:07;92644.38;;;21.62;35.13
48035;BME280;33812;46.480;6.834;2024-01-16T14:03:10;92636.53;;;21.61;35.19
48035;BME280;33812;46.480;6.834;2024-01-16T14:07:11;92635.00;;;21.60;35.17
48035;BME280;33812;46.480;6.834;2024-01-16T14:11:13;92647.41;;;21.65;35.35
48035;BME280;33812;46.480;6.834;2024-01-16T14:15:16;92643.59;;;21.62;35.19
48035;BME280;33812;46.480;6.834;2024-01-16T14:19:21;92644.38;;;21.62;35.34
48035;BME280;33812;46.480;6.834;2024-01-16T14:23:25;92654.94;;;21.64;35.36
48035;BME280;33812;46.480;6.834;2024-01-16T14:27:26;92661.69;;;21.63;35.20
48035;BME280;33812;46.480;6.834;2024-01-16T14:31:28;92647.72;;;21.67;35.26
48035;BME280;33812;46.480;6.834;2024-01-16T14:35:31;92652.50;;;21.66;35.70
48035;BME280;33812;46.480;6.834;2024-01-16T14:39:33;92644.47;;;21.68;35.79
48035;BME280;33812;46.480;6.834;2024-01-16T14:49:22;92655.06;;;21.70;35.18
48035;BME280;33812;46.480;6.834;2024-01-16T14:53:23;92641.69;;;21.68;35.06
48035;BME280;33812;46.480;6.834;2024-01-16T14:57:25;92647.22;;;21.68;35.03
48035;BME280;33812;46.480;6.834;2024-01-16T15:01:27;92633.88;;;21.67;35.05
48035;BME280;33812;46.480;6.834;2024-01-16T15:05:30;92639.41;;;21.67;34.85
48035;BME280;33812;46.480;6.834;2024-01-16T15:09:32;92644.94;;;21.67;34.73
48035;BME280;33812;46.480;6.834;2024-01-16T15:13:34;92645.41;;;21.65;34.75
48035;BME280;33812;46.480;6.834;2024-01-16T15:17:36;92652.94;;;21.65;34.62
48035;BME280;33812;46.480;6.834;2024-01-16T15:21:39;92650.16;;;21.65;34.63
48035;BME280;33812;46.480;6.834;2024-01-16T15:25:41;92637.91;;;21.66;34.62
48035;BME280;33812;46.480;6.834;2024-01-16T15:29:42;92637.13;;;21.65;34.71
48035;BME280;33812;46.480;6.834;2024-01-16T15:33:44;92630.06;;;21.64;34.62
48035;BME280;33812;46.480;6.834;2024-01-16T15:37:47;92642.66;;;21.65;34.49
48035;BME280;33812;46.480;6.834;2024-01-16T15:41:49;92633.88;;;21.67;34.34
48035;BME280;33812;46.480;6.834;2024-01-16T15:45:51;92631.88;;;21.67;34.48
48035;BME280;33812;46.480;6.834;2024-01-16T15:49:53;92635.44;;;21.68;34.29
48035;BME280;33812;46.480;6.834;2024-01-16T15:53:57;92634.19;;;21.69;34.26
48035;BME280;33812;46.480;6.834;2024-01-16T15:57:59;92646.97;;;21.66;34.39
48035;BME280;33812;46.480;6.834;2024-01-16T16:02:00;92657.25;;;21.66;34.33
48035;BME280;33812;46.480;6.834;2024-01-16T16:06:02;92654.47;;;21.66;34.21
48035;BME280;33812;46.480;6.834;2024-01-16T16:10:07;92656.47;;;21.65;34.27
48035;BME280;33812;46.480;6.834;2024-01-16T16:14:09;92659.72;;;21.64;34.10
48035;BME280;33812;46.480;6.834;2024-01-16T16:18:11;92654.19;;;21.64;34.21
48035;BME280;33812;46.480;6.834;2024-01-16T16:22:12;92670.00;;;21.63;34.12
48035;BME280;33812;46.480;6.834;2024-01-16T16:26:29;92676.16;;;21.58;34.10
48035;BME280;33812;46.480;6.834;2024-01-16T16:30:30;92682.63;;;21.55;34.08
48035;BME280;33812;46.480;6.834;2024-01-16T16:34:34;92691.69;;;21.55;33.68
48035;BME280;33812;46.480;6.834;2024-01-16T16:38:36;92690.63;;;21.53;34.09
48035;BME280;33812;46.480;6.834;2024-01-16T16:42:44;92694.94;;;21.54;34.73
48035;BME280;33812;46.480;6.834;2024-01-16T16:46:46;92698.16;;;21.52;34.42
48035;BME280;33812;46.480;6.834;2024-01-16T16:50:47;92695.22;;;21.56;34.40
48035;BME280;33812;46.480;6.834;2024-01-16T16:54:49;92687.84;;;21.53;35.00
48035;BME280;33812;46.480;6.834;2024-01-16T16:58:52;92690.47;;;21.56;35.11
48035;BME280;33812;46.480;6.834;2024-01-16T17:02:54;92666.34;;;21.57;34.73
48035;BME280;33812;46.480;6.834;2024-01-16T17:06:56;92664.53;;;21.54;35.21
48035;BME280;33812;46.480;6.834;2024-01-16T17:10:58;92656.56;;;21.46;36.22
48035;BME280;33812;46.480;6.834;2024-01-16T17:15:02;92663.75;;;21.53;35.76
48035;BME280;33812;46.480;6.834;2024-01-16T17:19:06;92656.09;;;21.48;35.75
48035;BME280;33812;46.480;6.834;2024-01-16T17:23:08;92658.38;;;21.49;35.14
48035;BME280;33812;46.480;6.834;2024-01-16T17:27:10;92661.53;;;21.33;36.48
48035;BME280;33812;46.480;6.834;2024-01-16T17:31:14;92660.94;;;21.29;36.24
48035;BME280;33812;46.480;6.834;2024-01-16T17:35:17;92656.66;;;21.28;35.69
48035;BME280;33812;46.480;6.834;2024-01-16T17:39:20;92662.63;;;21.26;35.70
48035;BME280;33812;46.480;6.834;2024-01-16T17:43:25;92663.56;;;21.23;35.63
48035;BME280;33812;46.480;6.834;2024-01-16T17:47:28;92662.34;;;21.24;35.79
48035;BME280;33812;46.480;6.834;2024-01-16T17:51:30;92652.81;;;21.25;35.99
48035;BME280;33812;46.480;6.834;2024-01-16T17:55:32;92658.63;;;21.27;35.30
48035;BME280;33812;46.480;6.834;2024-01-16T17:59:34;92641.88;;;21.31;35.07
48035;BME280;33812;46.480;6.834;2024-01-16T18:03:38;92650.81;;;21.25;35.40
48035;BME280;33812;46.480;6.834;2024-01-16T18:07:41;92648.53;;;21.24;36.58
48035;BME280;33812;46.480;6.834;2024-01-16T18:11:52;92650.03;;;21.25;36.96
48035;BME280;33812;46.480;6.834;2024-01-16T18:15:55;92653.28;;;21.23;37.12
48035;BME280;33812;46.480;6.834;2024-01-16T18:19:59;92651.75;;;21.22;37.41
48035;BME280;33812;46.480;6.834;2024-01-16T18:24:00;92637.00;;;21.25;37.22
48035;BME280;33812;46.480;6.834;2024-01-16T18:28:02;92643.75;;;21.24;37.03
48035;BME280;33812;46.480;6.834;2024-01-16T18:32:04;92648.34;;;21.28;36.94
48035;BME280;33812;46.480;6.834;2024-01-16T18:36:08;92649.56;;;21.26;37.06
48035;BME280;33812;46.480;6.834;2024-01-16T18:40:10;92640.00;;;21.37;37.13
48035;BME280;33812;46.480;6.834;2024-01-16T18:44:16;92641.41;;;21.32;36.69
48035;BME280;33812;46.480;6.834;2024-01-16T18:48:18;92639.13;;;21.31;37.25
48035;BME280;33812;46.480;6.834;2024-01-16T18:52:21;92645.41;;;21.31;37.06
48035;BME280;33812;46.480;6.834;2024-01-16T18:56:24;92640.50;;;21.26;37.76
48035;BME280;33812;46.480;6.834;2024-01-16T19:00:25;92644.97;;;21.23;37.37
48035;BME280;33812;46.480;6.834;2024-01-16T19:04:27;92628.53;;;21.29;37.21
48035;BME280;33812;46.480;6.834;2024-01-16T19:08:33;92624.53;;;21.30;37.41
48035;BME280;33812;46.480;6.834;2024-01-16T19:12:35;92617.03;;;21.21;37.85
48035;BME280;33812;46.480;6.834;2024-01-16T19:16:37;92614.91;;;21.16;38.22
48035;BME280;33812;46.480;6.834;2024-01-16T19:20:39;92599.06;;;21.26;37.76
48035;BME280;33812;46.480;6.834;2024-01-16T19:24:42;92606.00;;;21.21;38.19
48035;BME280;33812;46.480;6.834;2024-01-16T19:28:44;92598.81;;;21.14;38.10
48035;BME280;33812;46.480;6.834;2024-01-16T19:32:46;92593.75;;;21.13;38.21
48035;BME280;33812;46.480;6.834;2024-01-16T19:36:48;92583.19;;;21.11;38.25
48035;BME280;33812;46.480;6.834;2024-01-16T19:40:52;92577.00;;;21.17;38.03
48035;BME280;33812;46.480;6.834;2024-01-16T19:44:54;92566.91;;;21.13;38.34
48035;BME280;33812;46.480;6.834;2024-01-16T19:48:56;92559.84;;;21.12;38.60
48035;BME280;33812;46.480;6.834;2024-01-16T19:52:58;92552.00;;;21.11;39.02
48035;BME280;33812;46.480;6.834;2024-01-16T19:57:04;92559.25;;;21.08;39.01
48035;BME280;33812;46.480;6.834;2024-01-16T20:01:06;92565.81;;;21.11;39.53
48035;BME280;33812;46.480;6.834;2024-01-16T20:05:08;92568.28;;;21.09;39.07
48035;BME280;33812;46.480;6.834;2024-01-16T20:09:14;92564.84;;;21.23;39.20
48035;BME280;33812;46.480;6.834;2024-01-16T20:13:18;92569.78;;;21.19;39.48
48035;BME280;33812;46.480;6.834;2024-01-16T20:17:19;92552.94;;;21.08;39.29
48035;BME280;33812;46.480;6.834;2024-01-16T20:21:21;92559.50;;;21.20;40.75
48035;BME280;33812;46.480;6.834;2024-01-16T20:25:23;92544.63;;;21.17;40.66
48035;BME280;33812;46.480;6.834;2024-01-16T20:29:27;92543.69;;;21.20;41.08
48035;BME280;33812;46.480;6.834;2024-01-16T20:33:30;92539.09;;;21.17;41.00
48035;BME280;33812;46.480;6.834;2024-01-16T20:37:31;92528.81;;;21.18;41.42
48035;BME280;33812;46.480;6.834;2024-01-16T20:41:33;92525.28;;;21.17;41.29
48035;BME280;33812;46.480;6.834;2024-01-16T20:45:37;92517.75;;;21.18;41.18
48035;BME280;33812;46.480;6.834;2024-01-16T20:49:39;92513.31;;;21.20;40.87
48035;BME280;33812;46.480;6.834;2024-01-16T20:53:41;92513.94;;;21.15;41.10
48035;BME280;33812;46.480;6.834;2024-01-16T20:57:42;92509.16;;;21.16;41.15
48035;BME280;33812;46.480;6.834;2024-01-16T21:01:48;92502.13;;;21.14;40.86
48035;BME280;33812;46.480;6.834;2024-01-16T21:05:50;92499.53;;;21.11;40.68
48035;BME280;33812;46.480;6.834;2024-01-16T21:09:54;92487.06;;;21.16;40.59
48035;BME280;33812;46.480;6.834;2024-01-16T21:13:56;92465.72;;;21.16;40.68
48035;BME280;33812;46.480;6.834;2024-01-16T21:17:59;92473.72;;;21.14;40.77
48035;BME280;33812;46.480;6.834;2024-01-16T21:22:01;92456.66;;;21.16;40.70
48035;BME280;33812;46.480;6.834;2024-01-16T21:26:06;92474.53;;;21.05;40.49
48035;BME280;33812;46.480;6.834;2024-01-16T21:30:09;92474.34;;;21.09;40.35